Terminal Aerodrome Forecast
Issued by NWS Detroit/Pontiac, MI

Home | Current Version | Previous Version | Text Only | Print | Product List | Glossary On
Versions: 1 2 3 4 5 6 7 8 9 10 11 12 13 14 15 16 17 18 19 20 21 22 23 24 25 26 27 28 29 30 31 32
498
FTUS43 KDTX 052026 AAB
TAFDTW
TAF AMD
KDTW 052026Z 0520/0624 01012G20KT P6SM BKN060
     FM052300 36010G18KT P6SM SCT060
     FM060100 35005KT P6SM SKC
     FM061500 33006KT P6SM FEW060=

USA.gov is the U.S. government's official web portal to all federal, state and local government web resources and services.